<?xml version="1.0" encoding="UTF-8" standalone="no" ?>
<gpx xmlns="http://www.topografix.com/GPX/1/1" xmlns:xsi="http://www.w3.org/2001/XMLSchema-instance" xsi:schemaLocation="http://www.topografix.com/GPX/1/1 http://www.topografix.com/GPX/1/1/gpx.xsd" version="1.1" creator="VisuGPX - https://www.visugpx.com">
  <metadata>
    <name>Davrinche20104</name>
    <desc><![CDATA[la partie 4 des itinéraires de repérage]]></desc>
  </metadata>
  <trk>
    <name><![CDATA[--Saint-Georges-de-Mons-- OR-5377031:ser-jb05-vtt-b]]></name>
    <trkseg>
      <trkpt lat="45.94029" lon="2.8407">
        <ele>733</ele>
        <time>2015-10-18T19:27:47Z</time>
      </trkpt>
      <trkpt lat="45.94014" lon="2.84078">
        <ele>734</ele>
        <time>2015-10-18T19:29:47Z</time>
      </trkpt>
      <trkpt lat="45.94003" lon="2.84094">
        <ele>734</ele>
        <time>2015-10-18T19:31:47Z</time>
      </trkpt>
      <trkpt lat="45.93998" lon="2.84108">
        <ele>734</ele>
        <time>2015-10-18T19:33:47Z</time>
      </trkpt>
      <trkpt lat="45.93988" lon="2.84137">
        <ele>734</ele>
        <time>2015-10-18T19:35:47Z</time>
      </trkpt>
      <trkpt lat="45.93988" lon="2.84189">
        <ele>735</ele>
        <time>2015-10-18T19:37:47Z</time>
      </trkpt>
      <trkpt lat="45.93988" lon="2.84227">
        <ele>736</ele>
        <time>2015-10-18T19:39:47Z</time>
      </trkpt>
      <trkpt lat="45.93976" lon="2.84239">
        <ele>737</ele>
        <time>2015-10-18T19:41:47Z</time>
      </trkpt>
      <trkpt lat="45.93955" lon="2.84244">
        <ele>737</ele>
        <time>2015-10-18T19:43:47Z</time>
      </trkpt>
      <trkpt lat="45.93943" lon="2.84262">
        <ele>739</ele>
        <time>2015-10-18T19:45:47Z</time>
      </trkpt>
      <trkpt lat="45.93944" lon="2.84283">
        <ele>740</ele>
        <time>2015-10-18T19:47:47Z</time>
      </trkpt>
      <trkpt lat="45.93938" lon="2.84301">
        <ele>741</ele>
        <time>2015-10-18T19:49:47Z</time>
      </trkpt>
      <trkpt lat="45.93916" lon="2.84298">
        <ele>741</ele>
        <time>2015-10-18T19:51:47Z</time>
      </trkpt>
      <trkpt lat="45.93826" lon="2.84258">
        <ele>737</ele>
        <time>2015-10-18T19:53:47Z</time>
      </trkpt>
      <trkpt lat="45.93762" lon="2.84235">
        <ele>736</ele>
        <time>2015-10-18T19:55:47Z</time>
      </trkpt>
      <trkpt lat="45.93764" lon="2.84331">
        <ele>738</ele>
        <time>2015-10-18T19:57:47Z</time>
      </trkpt>
      <trkpt lat="45.93778" lon="2.84431">
        <ele>740</ele>
        <time>2015-10-18T19:59:47Z</time>
      </trkpt>
      <trkpt lat="45.93785" lon="2.8446">
        <ele>740</ele>
        <time>2015-10-18T20:01:47Z</time>
      </trkpt>
      <trkpt lat="45.93806" lon="2.84515">
        <ele>740</ele>
        <time>2015-10-18T20:03:47Z</time>
      </trkpt>
      <trkpt lat="45.93808" lon="2.84554">
        <ele>740</ele>
        <time>2015-10-18T20:05:47Z</time>
      </trkpt>
      <trkpt lat="45.93814" lon="2.84607">
        <ele>740</ele>
        <time>2015-10-18T20:07:47Z</time>
      </trkpt>
      <trkpt lat="45.93844" lon="2.84683">
        <ele>741</ele>
        <time>2015-10-18T20:09:47Z</time>
      </trkpt>
      <trkpt lat="45.9387" lon="2.84739">
        <ele>741</ele>
        <time>2015-10-18T20:11:47Z</time>
      </trkpt>
      <trkpt lat="45.93888" lon="2.84792">
        <ele>742</ele>
        <time>2015-10-18T20:13:47Z</time>
      </trkpt>
      <trkpt lat="45.93889" lon="2.8484">
        <ele>743</ele>
        <time>2015-10-18T20:15:47Z</time>
      </trkpt>
      <trkpt lat="45.93878" lon="2.84901">
        <ele>747</ele>
        <time>2015-10-18T20:17:47Z</time>
      </trkpt>
      <trkpt lat="45.93875" lon="2.84953">
        <ele>749</ele>
        <time>2015-10-18T20:19:47Z</time>
      </trkpt>
      <trkpt lat="45.93873" lon="2.85034">
        <ele>750</ele>
        <time>2015-10-18T20:21:47Z</time>
      </trkpt>
      <trkpt lat="45.93878" lon="2.85076">
        <ele>750</ele>
        <time>2015-10-18T20:23:47Z</time>
      </trkpt>
      <trkpt lat="45.93892" lon="2.85139">
        <ele>747</ele>
        <time>2015-10-18T20:25:47Z</time>
      </trkpt>
      <trkpt lat="45.93901" lon="2.85201">
        <ele>746</ele>
        <time>2015-10-18T20:27:47Z</time>
      </trkpt>
      <trkpt lat="45.93907" lon="2.8529">
        <ele>745</ele>
        <time>2015-10-18T20:29:47Z</time>
      </trkpt>
      <trkpt lat="45.93914" lon="2.85359">
        <ele>743</ele>
        <time>2015-10-18T20:31:47Z</time>
      </trkpt>
      <trkpt lat="45.9393" lon="2.85405">
        <ele>741</ele>
        <time>2015-10-18T20:33:47Z</time>
      </trkpt>
      <trkpt lat="45.93944" lon="2.85452">
        <ele>740</ele>
        <time>2015-10-18T20:35:47Z</time>
      </trkpt>
      <trkpt lat="45.93944" lon="2.85505">
        <ele>740</ele>
        <time>2015-10-18T20:37:47Z</time>
      </trkpt>
      <trkpt lat="45.93939" lon="2.85535">
        <ele>741</ele>
        <time>2015-10-18T20:39:47Z</time>
      </trkpt>
      <trkpt lat="45.93927" lon="2.85585">
        <ele>744</ele>
        <time>2015-10-18T20:41:47Z</time>
      </trkpt>
      <trkpt lat="45.93916" lon="2.85657">
        <ele>748</ele>
        <time>2015-10-18T20:43:47Z</time>
      </trkpt>
      <trkpt lat="45.93912" lon="2.85682">
        <ele>748</ele>
        <time>2015-10-18T20:45:47Z</time>
      </trkpt>
      <trkpt lat="45.93901" lon="2.85719">
        <ele>748</ele>
        <time>2015-10-18T20:47:47Z</time>
      </trkpt>
      <trkpt lat="45.93882" lon="2.85814">
        <ele>746</ele>
        <time>2015-10-18T20:49:47Z</time>
      </trkpt>
      <trkpt lat="45.93858" lon="2.8589">
        <ele>744</ele>
        <time>2015-10-18T20:51:47Z</time>
      </trkpt>
      <trkpt lat="45.9382" lon="2.85966">
        <ele>742</ele>
        <time>2015-10-18T20:53:47Z</time>
      </trkpt>
      <trkpt lat="45.93795" lon="2.86016">
        <ele>741</ele>
        <time>2015-10-18T20:55:47Z</time>
      </trkpt>
      <trkpt lat="45.93788" lon="2.86097">
        <ele>742</ele>
        <time>2015-10-18T20:57:47Z</time>
      </trkpt>
      <trkpt lat="45.93764" lon="2.8612">
        <ele>742</ele>
        <time>2015-10-18T20:59:47Z</time>
      </trkpt>
      <trkpt lat="45.93732" lon="2.86137">
        <ele>742</ele>
        <time>2015-10-18T21:01:47Z</time>
      </trkpt>
      <trkpt lat="45.93745" lon="2.86223">
        <ele>742</ele>
        <time>2015-10-18T21:03:47Z</time>
      </trkpt>
      <trkpt lat="45.93763" lon="2.86375">
        <ele>742</ele>
        <time>2015-10-18T21:05:47Z</time>
      </trkpt>
      <trkpt lat="45.9377" lon="2.86483">
        <ele>744</ele>
        <time>2015-10-18T21:07:47Z</time>
      </trkpt>
      <trkpt lat="45.93775" lon="2.86536">
        <ele>744</ele>
        <time>2015-10-18T21:09:47Z</time>
      </trkpt>
      <trkpt lat="45.9377" lon="2.86566">
        <ele>744</ele>
        <time>2015-10-18T21:11:47Z</time>
      </trkpt>
      <trkpt lat="45.93876" lon="2.86681">
        <ele>746</ele>
        <time>2015-10-18T21:13:47Z</time>
      </trkpt>
      <trkpt lat="45.93935" lon="2.86735">
        <ele>747</ele>
        <time>2015-10-18T21:15:47Z</time>
      </trkpt>
      <trkpt lat="45.93985" lon="2.8679">
        <ele>746</ele>
        <time>2015-10-18T21:17:47Z</time>
      </trkpt>
      <trkpt lat="45.94046" lon="2.86863">
        <ele>747</ele>
        <time>2015-10-18T21:19:47Z</time>
      </trkpt>
      <trkpt lat="45.94073" lon="2.86862">
        <ele>747</ele>
        <time>2015-10-18T21:21:47Z</time>
      </trkpt>
      <trkpt lat="45.94102" lon="2.86865">
        <ele>748</ele>
        <time>2015-10-18T21:23:47Z</time>
      </trkpt>
      <trkpt lat="45.94282" lon="2.86902">
        <ele>756</ele>
        <time>2015-10-18T21:25:47Z</time>
      </trkpt>
      <trkpt lat="45.94399" lon="2.86953">
        <ele>762</ele>
        <time>2015-10-18T21:27:47Z</time>
      </trkpt>
      <trkpt lat="45.9443" lon="2.86961">
        <ele>762</ele>
        <time>2015-10-18T21:29:47Z</time>
      </trkpt>
      <trkpt lat="45.94464" lon="2.86971">
        <ele>761</ele>
        <time>2015-10-18T21:31:47Z</time>
      </trkpt>
      <trkpt lat="45.94493" lon="2.86979">
        <ele>760</ele>
        <time>2015-10-18T21:33:47Z</time>
      </trkpt>
      <trkpt lat="45.94529" lon="2.86998">
        <ele>759</ele>
        <time>2015-10-18T21:35:47Z</time>
      </trkpt>
      <trkpt lat="45.94552" lon="2.87015">
        <ele>759</ele>
        <time>2015-10-18T21:37:47Z</time>
      </trkpt>
      <trkpt lat="45.94553" lon="2.87044">
        <ele>757</ele>
        <time>2015-10-18T21:39:47Z</time>
      </trkpt>
      <trkpt lat="45.94547" lon="2.87068">
        <ele>755</ele>
        <time>2015-10-18T21:41:47Z</time>
      </trkpt>
      <trkpt lat="45.94538" lon="2.8714">
        <ele>751</ele>
        <time>2015-10-18T21:43:47Z</time>
      </trkpt>
      <trkpt lat="45.94522" lon="2.87224">
        <ele>748</ele>
        <time>2015-10-18T21:45:47Z</time>
      </trkpt>
      <trkpt lat="45.94519" lon="2.87282">
        <ele>747</ele>
        <time>2015-10-18T21:47:47Z</time>
      </trkpt>
      <trkpt lat="45.94522" lon="2.87371">
        <ele>744</ele>
        <time>2015-10-18T21:49:47Z</time>
      </trkpt>
      <trkpt lat="45.94525" lon="2.87432">
        <ele>741</ele>
        <time>2015-10-18T21:51:47Z</time>
      </trkpt>
      <trkpt lat="45.94531" lon="2.87482">
        <ele>737</ele>
        <time>2015-10-18T21:53:47Z</time>
      </trkpt>
      <trkpt lat="45.94524" lon="2.87511">
        <ele>735</ele>
        <time>2015-10-18T21:55:47Z</time>
      </trkpt>
      <trkpt lat="45.94509" lon="2.87551">
        <ele>734</ele>
        <time>2015-10-18T21:57:47Z</time>
      </trkpt>
      <trkpt lat="45.94493" lon="2.87613">
        <ele>733</ele>
        <time>2015-10-18T21:59:47Z</time>
      </trkpt>
      <trkpt lat="45.94482" lon="2.87669">
        <ele>733</ele>
        <time>2015-10-18T22:01:47Z</time>
      </trkpt>
      <trkpt lat="45.94469" lon="2.87755">
        <ele>742</ele>
        <time>2015-10-18T22:03:47Z</time>
      </trkpt>
      <trkpt lat="45.94458" lon="2.87815">
        <ele>749</ele>
        <time>2015-10-18T22:05:47Z</time>
      </trkpt>
      <trkpt lat="45.94442" lon="2.87927">
        <ele>753</ele>
        <time>2015-10-18T22:07:47Z</time>
      </trkpt>
      <trkpt lat="45.944" lon="2.8792">
        <ele>752</ele>
        <time>2015-10-18T22:09:47Z</time>
      </trkpt>
      <trkpt lat="45.94314" lon="2.87886">
        <ele>749</ele>
        <time>2015-10-18T22:11:47Z</time>
      </trkpt>
      <trkpt lat="45.94245" lon="2.87869">
        <ele>747</ele>
        <time>2015-10-18T22:13:47Z</time>
      </trkpt>
      <trkpt lat="45.94177" lon="2.87868">
        <ele>742</ele>
        <time>2015-10-18T22:15:47Z</time>
      </trkpt>
      <trkpt lat="45.94073" lon="2.87881">
        <ele>733</ele>
        <time>2015-10-18T22:17:47Z</time>
      </trkpt>
      <trkpt lat="45.94028" lon="2.87889">
        <ele>727</ele>
        <time>2015-10-18T22:19:47Z</time>
      </trkpt>
      <trkpt lat="45.93954" lon="2.87945">
        <ele>716</ele>
        <time>2015-10-18T22:21:47Z</time>
      </trkpt>
      <trkpt lat="45.9392" lon="2.87968">
        <ele>709</ele>
        <time>2015-10-18T22:23:47Z</time>
      </trkpt>
      <trkpt lat="45.93908" lon="2.87993">
        <ele>708</ele>
        <time>2015-10-18T22:25:47Z</time>
      </trkpt>
      <trkpt lat="45.93917" lon="2.88024">
        <ele>708</ele>
        <time>2015-10-18T22:27:47Z</time>
      </trkpt>
      <trkpt lat="45.93923" lon="2.88041">
        <ele>709</ele>
        <time>2015-10-18T22:29:47Z</time>
      </trkpt>
      <trkpt lat="45.93923" lon="2.88062">
        <ele>708</ele>
        <time>2015-10-18T22:31:47Z</time>
      </trkpt>
      <trkpt lat="45.93913" lon="2.88102">
        <ele>707</ele>
        <time>2015-10-18T22:33:47Z</time>
      </trkpt>
      <trkpt lat="45.93899" lon="2.88168">
        <ele>706</ele>
        <time>2015-10-18T22:35:47Z</time>
      </trkpt>
      <trkpt lat="45.939" lon="2.88195">
        <ele>706</ele>
        <time>2015-10-18T22:37:47Z</time>
      </trkpt>
      <trkpt lat="45.93903" lon="2.88232">
        <ele>707</ele>
        <time>2015-10-18T22:39:47Z</time>
      </trkpt>
      <trkpt lat="45.93914" lon="2.88315">
        <ele>709</ele>
        <time>2015-10-18T22:41:47Z</time>
      </trkpt>
      <trkpt lat="45.93908" lon="2.88352">
        <ele>708</ele>
        <time>2015-10-18T22:43:47Z</time>
      </trkpt>
      <trkpt lat="45.939" lon="2.8839">
        <ele>708</ele>
        <time>2015-10-18T22:45:47Z</time>
      </trkpt>
      <trkpt lat="45.93888" lon="2.88473">
        <ele>708</ele>
        <time>2015-10-18T22:47:47Z</time>
      </trkpt>
      <trkpt lat="45.9396" lon="2.88473">
        <ele>715</ele>
        <time>2015-10-18T22:49:47Z</time>
      </trkpt>
      <trkpt lat="45.93998" lon="2.88483">
        <ele>719</ele>
        <time>2015-10-18T22:51:47Z</time>
      </trkpt>
      <trkpt lat="45.94048" lon="2.88519">
        <ele>722</ele>
        <time>2015-10-18T22:53:47Z</time>
      </trkpt>
      <trkpt lat="45.9409" lon="2.88542">
        <ele>724</ele>
        <time>2015-10-18T22:55:47Z</time>
      </trkpt>
      <trkpt lat="45.94189" lon="2.88554">
        <ele>726</ele>
        <time>2015-10-18T22:57:47Z</time>
      </trkpt>
      <trkpt lat="45.94231" lon="2.88557">
        <ele>726</ele>
        <time>2015-10-18T22:59:47Z</time>
      </trkpt>
      <trkpt lat="45.94268" lon="2.88557">
        <ele>725</ele>
        <time>2015-10-18T23:01:47Z</time>
      </trkpt>
      <trkpt lat="45.9432" lon="2.88551">
        <ele>723</ele>
        <time>2015-10-18T23:03:47Z</time>
      </trkpt>
      <trkpt lat="45.94352" lon="2.88545">
        <ele>723</ele>
        <time>2015-10-18T23:05:47Z</time>
      </trkpt>
      <trkpt lat="45.94372" lon="2.88563">
        <ele>722</ele>
        <time>2015-10-18T23:07:47Z</time>
      </trkpt>
      <trkpt lat="45.94358" lon="2.88601">
        <ele>720</ele>
        <time>2015-10-18T23:09:47Z</time>
      </trkpt>
      <trkpt lat="45.94352" lon="2.88664">
        <ele>716</ele>
        <time>2015-10-18T23:11:47Z</time>
      </trkpt>
      <trkpt lat="45.94329" lon="2.88757">
        <ele>708</ele>
        <time>2015-10-18T23:13:47Z</time>
      </trkpt>
      <trkpt lat="45.9431" lon="2.88779">
        <ele>708</ele>
        <time>2015-10-18T23:15:47Z</time>
      </trkpt>
      <trkpt lat="45.94281" lon="2.88808">
        <ele>707</ele>
        <time>2015-10-18T23:17:47Z</time>
      </trkpt>
      <trkpt lat="45.94269" lon="2.8884">
        <ele>704</ele>
        <time>2015-10-18T23:19:47Z</time>
      </trkpt>
      <trkpt lat="45.94251" lon="2.88895">
        <ele>699</ele>
        <time>2015-10-18T23:21:47Z</time>
      </trkpt>
      <trkpt lat="45.94233" lon="2.88923">
        <ele>696</ele>
        <time>2015-10-18T23:23:47Z</time>
      </trkpt>
      <trkpt lat="45.94205" lon="2.88941">
        <ele>694</ele>
        <time>2015-10-18T23:25:47Z</time>
      </trkpt>
      <trkpt lat="45.94179" lon="2.88948">
        <ele>693</ele>
        <time>2015-10-18T23:27:47Z</time>
      </trkpt>
      <trkpt lat="45.94155" lon="2.88955">
        <ele>692</ele>
        <time>2015-10-18T23:29:47Z</time>
      </trkpt>
      <trkpt lat="45.94115" lon="2.88988">
        <ele>690</ele>
        <time>2015-10-18T23:31:47Z</time>
      </trkpt>
      <trkpt lat="45.94093" lon="2.89014">
        <ele>688</ele>
        <time>2015-10-18T23:33:47Z</time>
      </trkpt>
      <trkpt lat="45.94062" lon="2.89059">
        <ele>685</ele>
        <time>2015-10-18T23:35:47Z</time>
      </trkpt>
      <trkpt lat="45.94039" lon="2.89103">
        <ele>684</ele>
        <time>2015-10-18T23:37:47Z</time>
      </trkpt>
      <trkpt lat="45.94016" lon="2.89156">
        <ele>685</ele>
        <time>2015-10-18T23:39:47Z</time>
      </trkpt>
      <trkpt lat="45.93995" lon="2.892">
        <ele>686</ele>
        <time>2015-10-18T23:41:47Z</time>
      </trkpt>
      <trkpt lat="45.93976" lon="2.89227">
        <ele>687</ele>
        <time>2015-10-18T23:43:47Z</time>
      </trkpt>
      <trkpt lat="45.93943" lon="2.89256">
        <ele>691</ele>
        <time>2015-10-18T23:45:47Z</time>
      </trkpt>
      <trkpt lat="45.93922" lon="2.89282">
        <ele>694</ele>
        <time>2015-10-18T23:47:47Z</time>
      </trkpt>
      <trkpt lat="45.93896" lon="2.89337">
        <ele>700</ele>
        <time>2015-10-18T23:49:47Z</time>
      </trkpt>
      <trkpt lat="45.93873" lon="2.89407">
        <ele>707</ele>
        <time>2015-10-18T23:51:47Z</time>
      </trkpt>
      <trkpt lat="45.93847" lon="2.89481">
        <ele>712</ele>
        <time>2015-10-18T23:53:47Z</time>
      </trkpt>
      <trkpt lat="45.93826" lon="2.89472">
        <ele>713</ele>
        <time>2015-10-18T23:55:47Z</time>
      </trkpt>
      <trkpt lat="45.93758" lon="2.89493">
        <ele>717</ele>
        <time>2015-10-18T23:57:47Z</time>
      </trkpt>
      <trkpt lat="45.937" lon="2.89532">
        <ele>721</ele>
        <time>2015-10-18T23:59:47Z</time>
      </trkpt>
      <trkpt lat="45.93655" lon="2.89553">
        <ele>724</ele>
        <time>2015-10-19T00:01:47Z</time>
      </trkpt>
      <trkpt lat="45.93614" lon="2.89574">
        <ele>726</ele>
        <time>2015-10-19T00:03:47Z</time>
      </trkpt>
      <trkpt lat="45.93582" lon="2.89583">
        <ele>727</ele>
        <time>2015-10-19T00:05:47Z</time>
      </trkpt>
      <trkpt lat="45.93531" lon="2.89588">
        <ele>729</ele>
        <time>2015-10-19T00:07:47Z</time>
      </trkpt>
      <trkpt lat="45.93503" lon="2.89605">
        <ele>730</ele>
        <time>2015-10-19T00:09:47Z</time>
      </trkpt>
      <trkpt lat="45.93498" lon="2.89627">
        <ele>730</ele>
        <time>2015-10-19T00:11:47Z</time>
      </trkpt>
      <trkpt lat="45.93489" lon="2.89655">
        <ele>729</ele>
        <time>2015-10-19T00:13:47Z</time>
      </trkpt>
      <trkpt lat="45.93471" lon="2.89673">
        <ele>729</ele>
        <time>2015-10-19T00:15:47Z</time>
      </trkpt>
      <trkpt lat="45.93452" lon="2.89693">
        <ele>728</ele>
        <time>2015-10-19T00:17:47Z</time>
      </trkpt>
      <trkpt lat="45.93435" lon="2.89718">
        <ele>725</ele>
        <time>2015-10-19T00:19:47Z</time>
      </trkpt>
      <trkpt lat="45.93417" lon="2.89746">
        <ele>721</ele>
        <time>2015-10-19T00:21:47Z</time>
      </trkpt>
      <trkpt lat="45.93373" lon="2.89747">
        <ele>720</ele>
        <time>2015-10-19T00:23:47Z</time>
      </trkpt>
      <trkpt lat="45.93322" lon="2.89756">
        <ele>718</ele>
        <time>2015-10-19T00:25:47Z</time>
      </trkpt>
      <trkpt lat="45.93306" lon="2.89801">
        <ele>718</ele>
        <time>2015-10-19T00:27:47Z</time>
      </trkpt>
      <trkpt lat="45.93251" lon="2.89802">
        <ele>723</ele>
        <time>2015-10-19T00:29:47Z</time>
      </trkpt>
      <trkpt lat="45.93209" lon="2.89819">
        <ele>727</ele>
        <time>2015-10-19T00:31:47Z</time>
      </trkpt>
      <trkpt lat="45.93167" lon="2.89833">
        <ele>731</ele>
        <time>2015-10-19T00:33:47Z</time>
      </trkpt>
      <trkpt lat="45.93132" lon="2.89847">
        <ele>735</ele>
        <time>2015-10-19T00:35:47Z</time>
      </trkpt>
      <trkpt lat="45.93081" lon="2.89869">
        <ele>741</ele>
        <time>2015-10-19T00:37:47Z</time>
      </trkpt>
      <trkpt lat="45.93056" lon="2.8989">
        <ele>745</ele>
        <time>2015-10-19T00:39:47Z</time>
      </trkpt>
      <trkpt lat="45.92998" lon="2.89921">
        <ele>749</ele>
        <time>2015-10-19T00:41:47Z</time>
      </trkpt>
      <trkpt lat="45.9296" lon="2.89944">
        <ele>751</ele>
        <time>2015-10-19T00:43:47Z</time>
      </trkpt>
      <trkpt lat="45.92928" lon="2.89978">
        <ele>753</ele>
        <time>2015-10-19T00:45:47Z</time>
      </trkpt>
      <trkpt lat="45.92909" lon="2.89994">
        <ele>755</ele>
        <time>2015-10-19T00:47:47Z</time>
      </trkpt>
      <trkpt lat="45.92921" lon="2.9002">
        <ele>758</ele>
        <time>2015-10-19T00:49:47Z</time>
      </trkpt>
      <trkpt lat="45.92934" lon="2.90038">
        <ele>762</ele>
        <time>2015-10-19T00:51:47Z</time>
      </trkpt>
      <trkpt lat="45.92952" lon="2.90043">
        <ele>763</ele>
        <time>2015-10-19T00:53:47Z</time>
      </trkpt>
      <trkpt lat="45.92975" lon="2.90044">
        <ele>764</ele>
        <time>2015-10-19T00:55:47Z</time>
      </trkpt>
      <trkpt lat="45.92988" lon="2.90057">
        <ele>766</ele>
        <time>2015-10-19T00:57:47Z</time>
      </trkpt>
      <trkpt lat="45.92994" lon="2.90074">
        <ele>769</ele>
        <time>2015-10-19T00:59:47Z</time>
      </trkpt>
      <trkpt lat="45.92988" lon="2.90099">
        <ele>773</ele>
        <time>2015-10-19T01:01:47Z</time>
      </trkpt>
      <trkpt lat="45.92981" lon="2.9014">
        <ele>781</ele>
        <time>2015-10-19T01:03:47Z</time>
      </trkpt>
      <trkpt lat="45.9297" lon="2.90164">
        <ele>785</ele>
        <time>2015-10-19T01:05:47Z</time>
      </trkpt>
      <trkpt lat="45.92975" lon="2.90183">
        <ele>789</ele>
        <time>2015-10-19T01:07:47Z</time>
      </trkpt>
      <trkpt lat="45.92984" lon="2.90186">
        <ele>790</ele>
        <time>2015-10-19T01:09:47Z</time>
      </trkpt>
      <trkpt lat="45.92985" lon="2.90204">
        <ele>794</ele>
        <time>2015-10-19T01:11:47Z</time>
      </trkpt>
      <trkpt lat="45.9297" lon="2.90218">
        <ele>797</ele>
        <time>2015-10-19T01:13:47Z</time>
      </trkpt>
      <trkpt lat="45.92955" lon="2.90241">
        <ele>802</ele>
        <time>2015-10-19T01:15:47Z</time>
      </trkpt>
      <trkpt lat="45.92976" lon="2.90237">
        <ele>802</ele>
        <time>2015-10-19T01:17:47Z</time>
      </trkpt>
      <trkpt lat="45.93015" lon="2.90239">
        <ele>803</ele>
        <time>2015-10-19T01:19:47Z</time>
      </trkpt>
      <trkpt lat="45.93035" lon="2.90256">
        <ele>805</ele>
        <time>2015-10-19T01:21:47Z</time>
      </trkpt>
      <trkpt lat="45.93041" lon="2.9028">
        <ele>806</ele>
        <time>2015-10-19T01:23:47Z</time>
      </trkpt>
      <trkpt lat="45.93044" lon="2.90317">
        <ele>808</ele>
        <time>2015-10-19T01:25:47Z</time>
      </trkpt>
      <trkpt lat="45.93049" lon="2.90372">
        <ele>808</ele>
        <time>2015-10-19T01:27:47Z</time>
      </trkpt>
      <trkpt lat="45.93097" lon="2.90397">
        <ele>804</ele>
        <time>2015-10-19T01:29:47Z</time>
      </trkpt>
      <trkpt lat="45.93132" lon="2.90404">
        <ele>799</ele>
        <time>2015-10-19T01:31:47Z</time>
      </trkpt>
      <trkpt lat="45.93159" lon="2.90404">
        <ele>797</ele>
        <time>2015-10-19T01:33:47Z</time>
      </trkpt>
      <trkpt lat="45.93236" lon="2.90441">
        <ele>780</ele>
        <time>2015-10-19T01:35:47Z</time>
      </trkpt>
      <trkpt lat="45.93281" lon="2.90467">
        <ele>769</ele>
        <time>2015-10-19T01:37:47Z</time>
      </trkpt>
      <trkpt lat="45.93293" lon="2.90487">
        <ele>766</ele>
        <time>2015-10-19T01:39:47Z</time>
      </trkpt>
      <trkpt lat="45.93282" lon="2.9051">
        <ele>768</ele>
        <time>2015-10-19T01:41:47Z</time>
      </trkpt>
      <trkpt lat="45.93253" lon="2.90553">
        <ele>774</ele>
        <time>2015-10-19T01:43:47Z</time>
      </trkpt>
      <trkpt lat="45.93227" lon="2.90588">
        <ele>778</ele>
        <time>2015-10-19T01:45:47Z</time>
      </trkpt>
      <trkpt lat="45.93214" lon="2.90622">
        <ele>781</ele>
        <time>2015-10-19T01:47:47Z</time>
      </trkpt>
      <trkpt lat="45.93203" lon="2.90655">
        <ele>784</ele>
        <time>2015-10-19T01:49:47Z</time>
      </trkpt>
      <trkpt lat="45.93187" lon="2.90664">
        <ele>788</ele>
        <time>2015-10-19T01:51:47Z</time>
      </trkpt>
      <trkpt lat="45.93147" lon="2.9065">
        <ele>795</ele>
        <time>2015-10-19T01:53:47Z</time>
      </trkpt>
      <trkpt lat="45.93121" lon="2.90636">
        <ele>798</ele>
        <time>2015-10-19T01:55:47Z</time>
      </trkpt>
      <trkpt lat="45.93101" lon="2.90644">
        <ele>802</ele>
        <time>2015-10-19T01:57:47Z</time>
      </trkpt>
      <trkpt lat="45.9309" lon="2.90659">
        <ele>805</ele>
        <time>2015-10-19T01:59:47Z</time>
      </trkpt>
      <trkpt lat="45.93082" lon="2.90691">
        <ele>807</ele>
        <time>2015-10-19T02:01:47Z</time>
      </trkpt>
      <trkpt lat="45.93076" lon="2.90731">
        <ele>808</ele>
        <time>2015-10-19T02:03:47Z</time>
      </trkpt>
      <trkpt lat="45.93062" lon="2.90788">
        <ele>808</ele>
        <time>2015-10-19T02:05:47Z</time>
      </trkpt>
      <trkpt lat="45.93044" lon="2.90824">
        <ele>810</ele>
        <time>2015-10-19T02:07:47Z</time>
      </trkpt>
      <trkpt lat="45.93032" lon="2.90853">
        <ele>811</ele>
        <time>2015-10-19T02:09:47Z</time>
      </trkpt>
      <trkpt lat="45.93023" lon="2.9089">
        <ele>813</ele>
        <time>2015-10-19T02:11:47Z</time>
      </trkpt>
      <trkpt lat="45.93017" lon="2.9093">
        <ele>815</ele>
        <time>2015-10-19T02:13:47Z</time>
      </trkpt>
      <trkpt lat="45.93012" lon="2.90958">
        <ele>817</ele>
        <time>2015-10-19T02:15:47Z</time>
      </trkpt>
      <trkpt lat="45.93016" lon="2.90994">
        <ele>818</ele>
        <time>2015-10-19T02:17:47Z</time>
      </trkpt>
      <trkpt lat="45.93027" lon="2.91029">
        <ele>814</ele>
        <time>2015-10-19T02:19:47Z</time>
      </trkpt>
      <trkpt lat="45.93035" lon="2.91071">
        <ele>810</ele>
        <time>2015-10-19T02:21:47Z</time>
      </trkpt>
      <trkpt lat="45.93127" lon="2.91078">
        <ele>787</ele>
        <time>2015-10-19T02:23:47Z</time>
      </trkpt>
      <trkpt lat="45.93152" lon="2.91083">
        <ele>781</ele>
        <time>2015-10-19T02:25:47Z</time>
      </trkpt>
      <trkpt lat="45.93183" lon="2.91084">
        <ele>772</ele>
        <time>2015-10-19T02:27:47Z</time>
      </trkpt>
      <trkpt lat="45.93254" lon="2.91087">
        <ele>753</ele>
        <time>2015-10-19T02:29:47Z</time>
      </trkpt>
      <trkpt lat="45.93282" lon="2.91088">
        <ele>747</ele>
        <time>2015-10-19T02:31:47Z</time>
      </trkpt>
      <trkpt lat="45.93292" lon="2.91098">
        <ele>745</ele>
        <time>2015-10-19T02:33:47Z</time>
      </trkpt>
      <trkpt lat="45.93302" lon="2.91118">
        <ele>743</ele>
        <time>2015-10-19T02:35:47Z</time>
      </trkpt>
      <trkpt lat="45.93314" lon="2.91134">
        <ele>740</ele>
        <time>2015-10-19T02:37:47Z</time>
      </trkpt>
      <trkpt lat="45.93343" lon="2.91139">
        <ele>738</ele>
        <time>2015-10-19T02:39:47Z</time>
      </trkpt>
      <trkpt lat="45.93345" lon="2.91177">
        <ele>739</ele>
        <time>2015-10-19T02:41:47Z</time>
      </trkpt>
      <trkpt lat="45.93342" lon="2.91228">
        <ele>739</ele>
        <time>2015-10-19T02:43:47Z</time>
      </trkpt>
      <trkpt lat="45.93341" lon="2.91274">
        <ele>740</ele>
        <time>2015-10-19T02:45:47Z</time>
      </trkpt>
      <trkpt lat="45.93341" lon="2.91312">
        <ele>742</ele>
        <time>2015-10-19T02:47:47Z</time>
      </trkpt>
      <trkpt lat="45.93329" lon="2.91379">
        <ele>744</ele>
        <time>2015-10-19T02:49:47Z</time>
      </trkpt>
      <trkpt lat="45.93333" lon="2.91419">
        <ele>745</ele>
        <time>2015-10-19T02:51:47Z</time>
      </trkpt>
      <trkpt lat="45.93338" lon="2.91435">
        <ele>747</ele>
        <time>2015-10-19T02:53:47Z</time>
      </trkpt>
      <trkpt lat="45.93356" lon="2.91413">
        <ele>749</ele>
        <time>2015-10-19T02:55:47Z</time>
      </trkpt>
      <trkpt lat="45.93373" lon="2.91408">
        <ele>752</ele>
        <time>2015-10-19T02:57:47Z</time>
      </trkpt>
      <trkpt lat="45.93405" lon="2.91426">
        <ele>759</ele>
        <time>2015-10-19T02:59:47Z</time>
      </trkpt>
      <trkpt lat="45.93438" lon="2.91449">
        <ele>764</ele>
        <time>2015-10-19T03:01:47Z</time>
      </trkpt>
      <trkpt lat="45.9351" lon="2.91445">
        <ele>776</ele>
        <time>2015-10-19T03:03:47Z</time>
      </trkpt>
      <trkpt lat="45.93535" lon="2.91445">
        <ele>779</ele>
        <time>2015-10-19T03:05:47Z</time>
      </trkpt>
      <trkpt lat="45.93567" lon="2.91437">
        <ele>783</ele>
        <time>2015-10-19T03:07:47Z</time>
      </trkpt>
      <trkpt lat="45.93619" lon="2.91424">
        <ele>790</ele>
        <time>2015-10-19T03:09:47Z</time>
      </trkpt>
      <trkpt lat="45.93629" lon="2.91429">
        <ele>792</ele>
        <time>2015-10-19T03:11:47Z</time>
      </trkpt>
      <trkpt lat="45.93639" lon="2.91453">
        <ele>796</ele>
        <time>2015-10-19T03:13:47Z</time>
      </trkpt>
      <trkpt lat="45.93655" lon="2.9144">
        <ele>797</ele>
        <time>2015-10-19T03:15:47Z</time>
      </trkpt>
      <trkpt lat="45.93683" lon="2.91423">
        <ele>798</ele>
        <time>2015-10-19T03:17:47Z</time>
      </trkpt>
      <trkpt lat="45.93715" lon="2.91407">
        <ele>798</ele>
        <time>2015-10-19T03:19:47Z</time>
      </trkpt>
      <trkpt lat="45.93761" lon="2.9139">
        <ele>799</ele>
        <time>2015-10-19T03:21:47Z</time>
      </trkpt>
      <trkpt lat="45.93782" lon="2.91378">
        <ele>798</ele>
        <time>2015-10-19T03:23:47Z</time>
      </trkpt>
      <trkpt lat="45.93802" lon="2.91389">
        <ele>800</ele>
        <time>2015-10-19T03:25:47Z</time>
      </trkpt>
      <trkpt lat="45.93838" lon="2.91411">
        <ele>804</ele>
        <time>2015-10-19T03:27:47Z</time>
      </trkpt>
      <trkpt lat="45.93857" lon="2.91421">
        <ele>805</ele>
        <time>2015-10-19T03:29:47Z</time>
      </trkpt>
      <trkpt lat="45.93882" lon="2.91434">
        <ele>807</ele>
        <time>2015-10-19T03:31:47Z</time>
      </trkpt>
      <trkpt lat="45.93902" lon="2.91439">
        <ele>807</ele>
        <time>2015-10-19T03:33:47Z</time>
      </trkpt>
      <trkpt lat="45.93914" lon="2.9144">
        <ele>807</ele>
        <time>2015-10-19T03:35:47Z</time>
      </trkpt>
      <trkpt lat="45.9394" lon="2.91469">
        <ele>810</ele>
        <time>2015-10-19T03:37:47Z</time>
      </trkpt>
      <trkpt lat="45.93956" lon="2.91486">
        <ele>811</ele>
        <time>2015-10-19T03:39:47Z</time>
      </trkpt>
      <trkpt lat="45.93974" lon="2.91536">
        <ele>810</ele>
        <time>2015-10-19T03:41:47Z</time>
      </trkpt>
      <trkpt lat="45.93952" lon="2.91566">
        <ele>812</ele>
        <time>2015-10-19T03:43:47Z</time>
      </trkpt>
      <trkpt lat="45.93896" lon="2.91559">
        <ele>814</ele>
        <time>2015-10-19T03:45:47Z</time>
      </trkpt>
      <trkpt lat="45.9388" lon="2.91583">
        <ele>815</ele>
        <time>2015-10-19T03:47:47Z</time>
      </trkpt>
      <trkpt lat="45.93863" lon="2.91644">
        <ele>818</ele>
        <time>2015-10-19T03:49:47Z</time>
      </trkpt>
      <trkpt lat="45.93861" lon="2.91692">
        <ele>820</ele>
        <time>2015-10-19T03:51:47Z</time>
      </trkpt>
      <trkpt lat="45.93866" lon="2.91735">
        <ele>821</ele>
        <time>2015-10-19T03:53:47Z</time>
      </trkpt>
      <trkpt lat="45.93872" lon="2.91784">
        <ele>822</ele>
        <time>2015-10-19T03:55:47Z</time>
      </trkpt>
      <trkpt lat="45.93877" lon="2.91822">
        <ele>823</ele>
        <time>2015-10-19T03:57:47Z</time>
      </trkpt>
      <trkpt lat="45.93855" lon="2.91923">
        <ele>828</ele>
        <time>2015-10-19T03:59:47Z</time>
      </trkpt>
      <trkpt lat="45.93838" lon="2.91978">
        <ele>830</ele>
        <time>2015-10-19T04:01:47Z</time>
      </trkpt>
      <trkpt lat="45.93822" lon="2.92032">
        <ele>830</ele>
        <time>2015-10-19T04:03:47Z</time>
      </trkpt>
      <trkpt lat="45.93811" lon="2.92088">
        <ele>830</ele>
        <time>2015-10-19T04:05:47Z</time>
      </trkpt>
      <trkpt lat="45.93816" lon="2.92129">
        <ele>831</ele>
        <time>2015-10-19T04:07:47Z</time>
      </trkpt>
      <trkpt lat="45.93821" lon="2.92174">
        <ele>833</ele>
        <time>2015-10-19T04:09:47Z</time>
      </trkpt>
      <trkpt lat="45.93815" lon="2.92277">
        <ele>837</ele>
        <time>2015-10-19T04:11:47Z</time>
      </trkpt>
      <trkpt lat="45.93802" lon="2.92317">
        <ele>838</ele>
        <time>2015-10-19T04:13:47Z</time>
      </trkpt>
      <trkpt lat="45.93795" lon="2.92342">
        <ele>838</ele>
        <time>2015-10-19T04:15:47Z</time>
      </trkpt>
      <trkpt lat="45.93906" lon="2.9242">
        <ele>836</ele>
        <time>2015-10-19T04:17:47Z</time>
      </trkpt>
      <trkpt lat="45.93932" lon="2.92429">
        <ele>834</ele>
        <time>2015-10-19T04:19:47Z</time>
      </trkpt>
      <trkpt lat="45.93969" lon="2.92447">
        <ele>831</ele>
        <time>2015-10-19T04:21:47Z</time>
      </trkpt>
      <trkpt lat="45.9401" lon="2.92469">
        <ele>829</ele>
        <time>2015-10-19T04:23:47Z</time>
      </trkpt>
      <trkpt lat="45.94134" lon="2.9256">
        <ele>820</ele>
        <time>2015-10-19T04:25:47Z</time>
      </trkpt>
      <trkpt lat="45.94205" lon="2.92605">
        <ele>810</ele>
        <time>2015-10-19T04:27:47Z</time>
      </trkpt>
      <trkpt lat="45.9423" lon="2.92617">
        <ele>808</ele>
        <time>2015-10-19T04:29:47Z</time>
      </trkpt>
      <trkpt lat="45.94283" lon="2.92629">
        <ele>803</ele>
        <time>2015-10-19T04:31:47Z</time>
      </trkpt>
      <trkpt lat="45.94339" lon="2.92635">
        <ele>798</ele>
        <time>2015-10-19T04:33:47Z</time>
      </trkpt>
      <trkpt lat="45.94446" lon="2.92659">
        <ele>783</ele>
        <time>2015-10-19T04:35:47Z</time>
      </trkpt>
      <trkpt lat="45.94492" lon="2.92667">
        <ele>775</ele>
        <time>2015-10-19T04:37:47Z</time>
      </trkpt>
      <trkpt lat="45.94541" lon="2.92665">
        <ele>769</ele>
        <time>2015-10-19T04:39:47Z</time>
      </trkpt>
      <trkpt lat="45.94661" lon="2.92671">
        <ele>756</ele>
        <time>2015-10-19T04:41:47Z</time>
      </trkpt>
      <trkpt lat="45.94687" lon="2.92658">
        <ele>752</ele>
        <time>2015-10-19T04:43:47Z</time>
      </trkpt>
      <trkpt lat="45.94711" lon="2.9266">
        <ele>749</ele>
        <time>2015-10-19T04:45:47Z</time>
      </trkpt>
      <trkpt lat="45.94746" lon="2.92677">
        <ele>746</ele>
        <time>2015-10-19T04:47:47Z</time>
      </trkpt>
      <trkpt lat="45.94776" lon="2.92699">
        <ele>743</ele>
        <time>2015-10-19T04:49:47Z</time>
      </trkpt>
      <trkpt lat="45.94807" lon="2.92723">
        <ele>741</ele>
        <time>2015-10-19T04:51:47Z</time>
      </trkpt>
      <trkpt lat="45.94833" lon="2.92776">
        <ele>739</ele>
        <time>2015-10-19T04:53:47Z</time>
      </trkpt>
      <trkpt lat="45.94861" lon="2.92824">
        <ele>736</ele>
        <time>2015-10-19T04:55:47Z</time>
      </trkpt>
      <trkpt lat="45.94903" lon="2.9287">
        <ele>731</ele>
        <time>2015-10-19T04:57:47Z</time>
      </trkpt>
      <trkpt lat="45.94918" lon="2.9285">
        <ele>728</ele>
        <time>2015-10-19T04:59:47Z</time>
      </trkpt>
      <trkpt lat="45.9493" lon="2.92799">
        <ele>728</ele>
        <time>2015-10-19T05:01:47Z</time>
      </trkpt>
      <trkpt lat="45.94941" lon="2.92738">
        <ele>729</ele>
        <time>2015-10-19T05:03:47Z</time>
      </trkpt>
      <trkpt lat="45.94946" lon="2.92706">
        <ele>729</ele>
        <time>2015-10-19T05:05:47Z</time>
      </trkpt>
      <trkpt lat="45.94899" lon="2.92513">
        <ele>734</ele>
        <time>2015-10-19T05:07:47Z</time>
      </trkpt>
      <trkpt lat="45.94871" lon="2.92387">
        <ele>731</ele>
        <time>2015-10-19T05:09:47Z</time>
      </trkpt>
      <trkpt lat="45.94878" lon="2.92367">
        <ele>731</ele>
        <time>2015-10-19T05:11:47Z</time>
      </trkpt>
      <trkpt lat="45.94873" lon="2.92337">
        <ele>730</ele>
        <time>2015-10-19T05:13:47Z</time>
      </trkpt>
      <trkpt lat="45.94864" lon="2.92276">
        <ele>730</ele>
        <time>2015-10-19T05:15:47Z</time>
      </trkpt>
      <trkpt lat="45.94857" lon="2.92248">
        <ele>730</ele>
        <time>2015-10-19T05:17:47Z</time>
      </trkpt>
      <trkpt lat="45.9486" lon="2.9222">
        <ele>729</ele>
        <time>2015-10-19T05:19:47Z</time>
      </trkpt>
      <trkpt lat="45.94872" lon="2.92177">
        <ele>729</ele>
        <time>2015-10-19T05:21:47Z</time>
      </trkpt>
      <trkpt lat="45.94865" lon="2.92138">
        <ele>729</ele>
        <time>2015-10-19T05:23:47Z</time>
      </trkpt>
      <trkpt lat="45.94851" lon="2.92085">
        <ele>731</ele>
        <time>2015-10-19T05:25:47Z</time>
      </trkpt>
      <trkpt lat="45.94828" lon="2.92041">
        <ele>733</ele>
        <time>2015-10-19T05:27:47Z</time>
      </trkpt>
      <trkpt lat="45.94821" lon="2.92015">
        <ele>734</ele>
        <time>2015-10-19T05:29:47Z</time>
      </trkpt>
      <trkpt lat="45.94823" lon="2.91971">
        <ele>735</ele>
        <time>2015-10-19T05:31:47Z</time>
      </trkpt>
      <trkpt lat="45.94828" lon="2.9193">
        <ele>735</ele>
        <time>2015-10-19T05:33:47Z</time>
      </trkpt>
      <trkpt lat="45.94834" lon="2.91857">
        <ele>733</ele>
        <time>2015-10-19T05:35:47Z</time>
      </trkpt>
      <trkpt lat="45.9483" lon="2.9182">
        <ele>731</ele>
        <time>2015-10-19T05:37:47Z</time>
      </trkpt>
      <trkpt lat="45.94825" lon="2.91778">
        <ele>728</ele>
        <time>2015-10-19T05:39:47Z</time>
      </trkpt>
      <trkpt lat="45.94833" lon="2.91745">
        <ele>726</ele>
        <time>2015-10-19T05:41:47Z</time>
      </trkpt>
      <trkpt lat="45.94837" lon="2.91714">
        <ele>724</ele>
        <time>2015-10-19T05:43:47Z</time>
      </trkpt>
      <trkpt lat="45.94839" lon="2.91666">
        <ele>722</ele>
        <time>2015-10-19T05:45:47Z</time>
      </trkpt>
      <trkpt lat="45.94842" lon="2.91608">
        <ele>718</ele>
        <time>2015-10-19T05:47:47Z</time>
      </trkpt>
      <trkpt lat="45.94848" lon="2.91577">
        <ele>715</ele>
        <time>2015-10-19T05:49:47Z</time>
      </trkpt>
      <trkpt lat="45.94857" lon="2.91545">
        <ele>712</ele>
        <time>2015-10-19T05:51:47Z</time>
      </trkpt>
      <trkpt lat="45.94875" lon="2.91511">
        <ele>708</ele>
        <time>2015-10-19T05:53:47Z</time>
      </trkpt>
      <trkpt lat="45.94892" lon="2.91482">
        <ele>706</ele>
        <time>2015-10-19T05:55:47Z</time>
      </trkpt>
      <trkpt lat="45.94917" lon="2.9148">
        <ele>704</ele>
        <time>2015-10-19T05:57:47Z</time>
      </trkpt>
      <trkpt lat="45.9494" lon="2.91476">
        <ele>702</ele>
        <time>2015-10-19T05:59:47Z</time>
      </trkpt>
      <trkpt lat="45.94954" lon="2.91461">
        <ele>701</ele>
        <time>2015-10-19T06:01:47Z</time>
      </trkpt>
      <trkpt lat="45.94965" lon="2.91438">
        <ele>701</ele>
        <time>2015-10-19T06:03:47Z</time>
      </trkpt>
      <trkpt lat="45.94978" lon="2.91402">
        <ele>701</ele>
        <time>2015-10-19T06:05:47Z</time>
      </trkpt>
      <trkpt lat="45.94984" lon="2.91377">
        <ele>701</ele>
        <time>2015-10-19T06:07:47Z</time>
      </trkpt>
      <trkpt lat="45.94988" lon="2.9134">
        <ele>701</ele>
        <time>2015-10-19T06:09:47Z</time>
      </trkpt>
      <trkpt lat="45.94991" lon="2.91301">
        <ele>699</ele>
        <time>2015-10-19T06:11:47Z</time>
      </trkpt>
      <trkpt lat="45.94988" lon="2.91278">
        <ele>698</ele>
        <time>2015-10-19T06:13:47Z</time>
      </trkpt>
      <trkpt lat="45.94983" lon="2.91247">
        <ele>698</ele>
        <time>2015-10-19T06:15:47Z</time>
      </trkpt>
      <trkpt lat="45.94983" lon="2.91221">
        <ele>698</ele>
        <time>2015-10-19T06:17:47Z</time>
      </trkpt>
      <trkpt lat="45.94988" lon="2.91206">
        <ele>697</ele>
        <time>2015-10-19T06:19:47Z</time>
      </trkpt>
      <trkpt lat="45.94995" lon="2.91192">
        <ele>697</ele>
        <time>2015-10-19T06:21:47Z</time>
      </trkpt>
      <trkpt lat="45.9501" lon="2.91184">
        <ele>696</ele>
        <time>2015-10-19T06:23:47Z</time>
      </trkpt>
      <trkpt lat="45.95022" lon="2.91169">
        <ele>696</ele>
        <time>2015-10-19T06:25:47Z</time>
      </trkpt>
      <trkpt lat="45.95031" lon="2.91143">
        <ele>697</ele>
        <time>2015-10-19T06:27:47Z</time>
      </trkpt>
      <trkpt lat="45.95041" lon="2.91055">
        <ele>701</ele>
        <time>2015-10-19T06:29:47Z</time>
      </trkpt>
      <trkpt lat="45.95045" lon="2.91007">
        <ele>701</ele>
        <time>2015-10-19T06:31:47Z</time>
      </trkpt>
      <trkpt lat="45.95045" lon="2.90953">
        <ele>700</ele>
        <time>2015-10-19T06:33:47Z</time>
      </trkpt>
      <trkpt lat="45.95054" lon="2.90919">
        <ele>698</ele>
        <time>2015-10-19T06:35:47Z</time>
      </trkpt>
      <trkpt lat="45.95066" lon="2.90891">
        <ele>697</ele>
        <time>2015-10-19T06:37:47Z</time>
      </trkpt>
      <trkpt lat="45.95083" lon="2.90855">
        <ele>695</ele>
        <time>2015-10-19T06:39:47Z</time>
      </trkpt>
      <trkpt lat="45.95104" lon="2.90825">
        <ele>693</ele>
        <time>2015-10-19T06:41:47Z</time>
      </trkpt>
      <trkpt lat="45.95124" lon="2.90801">
        <ele>691</ele>
        <time>2015-10-19T06:43:47Z</time>
      </trkpt>
      <trkpt lat="45.95144" lon="2.90774">
        <ele>689</ele>
        <time>2015-10-19T06:45:47Z</time>
      </trkpt>
      <trkpt lat="45.95154" lon="2.90751">
        <ele>688</ele>
        <time>2015-10-19T06:47:47Z</time>
      </trkpt>
      <trkpt lat="45.95171" lon="2.90697">
        <ele>683</ele>
        <time>2015-10-19T06:49:47Z</time>
      </trkpt>
      <trkpt lat="45.95192" lon="2.90644">
        <ele>678</ele>
        <time>2015-10-19T06:51:47Z</time>
      </trkpt>
      <trkpt lat="45.95202" lon="2.90617">
        <ele>675</ele>
        <time>2015-10-19T06:53:47Z</time>
      </trkpt>
      <trkpt lat="45.95212" lon="2.9058">
        <ele>670</ele>
        <time>2015-10-19T06:55:47Z</time>
      </trkpt>
      <trkpt lat="45.95218" lon="2.90558">
        <ele>668</ele>
        <time>2015-10-19T06:57:47Z</time>
      </trkpt>
      <trkpt lat="45.95214" lon="2.90523">
        <ele>665</ele>
        <time>2015-10-19T06:59:47Z</time>
      </trkpt>
      <trkpt lat="45.9521" lon="2.90496">
        <ele>663</ele>
        <time>2015-10-19T07:01:47Z</time>
      </trkpt>
      <trkpt lat="45.95204" lon="2.90456">
        <ele>662</ele>
        <time>2015-10-19T07:03:47Z</time>
      </trkpt>
      <trkpt lat="45.95192" lon="2.90428">
        <ele>662</ele>
        <time>2015-10-19T07:05:47Z</time>
      </trkpt>
      <trkpt lat="45.95145" lon="2.90366">
        <ele>663</ele>
        <time>2015-10-19T07:07:47Z</time>
      </trkpt>
      <trkpt lat="45.9513" lon="2.90345">
        <ele>663</ele>
        <time>2015-10-19T07:09:47Z</time>
      </trkpt>
      <trkpt lat="45.95119" lon="2.90326">
        <ele>663</ele>
        <time>2015-10-19T07:11:47Z</time>
      </trkpt>
      <trkpt lat="45.95113" lon="2.90294">
        <ele>662</ele>
        <time>2015-10-19T07:13:47Z</time>
      </trkpt>
      <trkpt lat="45.9511" lon="2.90281">
        <ele>661</ele>
        <time>2015-10-19T07:15:47Z</time>
      </trkpt>
      <trkpt lat="45.95106" lon="2.90267">
        <ele>661</ele>
        <time>2015-10-19T07:17:47Z</time>
      </trkpt>
      <trkpt lat="45.95091" lon="2.90245">
        <ele>661</ele>
        <time>2015-10-19T07:19:47Z</time>
      </trkpt>
      <trkpt lat="45.95082" lon="2.90215">
        <ele>661</ele>
        <time>2015-10-19T07:21:47Z</time>
      </trkpt>
      <trkpt lat="45.95074" lon="2.90183">
        <ele>661</ele>
        <time>2015-10-19T07:23:47Z</time>
      </trkpt>
      <trkpt lat="45.9506" lon="2.9015">
        <ele>663</ele>
        <time>2015-10-19T07:25:47Z</time>
      </trkpt>
      <trkpt lat="45.95054" lon="2.90144">
        <ele>663</ele>
        <time>2015-10-19T07:27:47Z</time>
      </trkpt>
      <trkpt lat="45.95107" lon="2.90064">
        <ele>671</ele>
        <time>2015-10-19T07:29:47Z</time>
      </trkpt>
      <trkpt lat="45.95134" lon="2.90011">
        <ele>676</ele>
        <time>2015-10-19T07:31:47Z</time>
      </trkpt>
      <trkpt lat="45.9515" lon="2.89985">
        <ele>678</ele>
        <time>2015-10-19T07:33:47Z</time>
      </trkpt>
      <trkpt lat="45.95162" lon="2.89979">
        <ele>679</ele>
        <time>2015-10-19T07:35:47Z</time>
      </trkpt>
      <trkpt lat="45.95171" lon="2.89971">
        <ele>679</ele>
        <time>2015-10-19T07:37:47Z</time>
      </trkpt>
      <trkpt lat="45.95174" lon="2.89951">
        <ele>679</ele>
        <time>2015-10-19T07:39:47Z</time>
      </trkpt>
      <trkpt lat="45.95177" lon="2.89938">
        <ele>680</ele>
        <time>2015-10-19T07:41:47Z</time>
      </trkpt>
      <trkpt lat="45.95167" lon="2.89921">
        <ele>681</ele>
        <time>2015-10-19T07:43:47Z</time>
      </trkpt>
      <trkpt lat="45.9516" lon="2.89892">
        <ele>681</ele>
        <time>2015-10-19T07:45:47Z</time>
      </trkpt>
      <trkpt lat="45.95166" lon="2.89831">
        <ele>682</ele>
        <time>2015-10-19T07:47:47Z</time>
      </trkpt>
      <trkpt lat="45.95171" lon="2.89764">
        <ele>682</ele>
        <time>2015-10-19T07:49:47Z</time>
      </trkpt>
      <trkpt lat="45.95184" lon="2.89693">
        <ele>681</ele>
        <time>2015-10-19T07:51:47Z</time>
      </trkpt>
      <trkpt lat="45.95196" lon="2.89652">
        <ele>681</ele>
        <time>2015-10-19T07:53:47Z</time>
      </trkpt>
      <trkpt lat="45.95218" lon="2.89594">
        <ele>680</ele>
        <time>2015-10-19T07:55:47Z</time>
      </trkpt>
      <trkpt lat="45.95253" lon="2.89525">
        <ele>678</ele>
        <time>2015-10-19T07:57:47Z</time>
      </trkpt>
      <trkpt lat="45.95288" lon="2.89459">
        <ele>676</ele>
        <time>2015-10-19T07:59:47Z</time>
      </trkpt>
      <trkpt lat="45.95303" lon="2.89428">
        <ele>675</ele>
        <time>2015-10-19T08:01:47Z</time>
      </trkpt>
      <trkpt lat="45.95311" lon="2.89415">
        <ele>674</ele>
        <time>2015-10-19T08:03:47Z</time>
      </trkpt>
      <trkpt lat="45.95297" lon="2.894">
        <ele>674</ele>
        <time>2015-10-19T08:05:47Z</time>
      </trkpt>
      <trkpt lat="45.95323" lon="2.89351">
        <ele>674</ele>
        <time>2015-10-19T08:07:47Z</time>
      </trkpt>
      <trkpt lat="45.95337" lon="2.89304">
        <ele>676</ele>
        <time>2015-10-19T08:09:47Z</time>
      </trkpt>
      <trkpt lat="45.95347" lon="2.89277">
        <ele>678</ele>
        <time>2015-10-19T08:11:47Z</time>
      </trkpt>
      <trkpt lat="45.95389" lon="2.89241">
        <ele>681</ele>
        <time>2015-10-19T08:13:47Z</time>
      </trkpt>
      <trkpt lat="45.95403" lon="2.89222">
        <ele>681</ele>
        <time>2015-10-19T08:15:47Z</time>
      </trkpt>
      <trkpt lat="45.95419" lon="2.89171">
        <ele>683</ele>
        <time>2015-10-19T08:17:47Z</time>
      </trkpt>
      <trkpt lat="45.95433" lon="2.89117">
        <ele>687</ele>
        <time>2015-10-19T08:19:47Z</time>
      </trkpt>
      <trkpt lat="45.95438" lon="2.89082">
        <ele>690</ele>
        <time>2015-10-19T08:21:47Z</time>
      </trkpt>
      <trkpt lat="45.95442" lon="2.89031">
        <ele>695</ele>
        <time>2015-10-19T08:23:47Z</time>
      </trkpt>
      <trkpt lat="45.95444" lon="2.88983">
        <ele>698</ele>
        <time>2015-10-19T08:25:47Z</time>
      </trkpt>
      <trkpt lat="45.95453" lon="2.88953">
        <ele>700</ele>
        <time>2015-10-19T08:27:47Z</time>
      </trkpt>
      <trkpt lat="45.9546" lon="2.88922">
        <ele>702</ele>
        <time>2015-10-19T08:29:47Z</time>
      </trkpt>
      <trkpt lat="45.95468" lon="2.8889">
        <ele>705</ele>
        <time>2015-10-19T08:31:47Z</time>
      </trkpt>
      <trkpt lat="45.95473" lon="2.88809">
        <ele>710</ele>
        <time>2015-10-19T08:33:47Z</time>
      </trkpt>
      <trkpt lat="45.9545" lon="2.888">
        <ele>709</ele>
        <time>2015-10-19T08:35:47Z</time>
      </trkpt>
      <trkpt lat="45.95422" lon="2.88803">
        <ele>708</ele>
        <time>2015-10-19T08:37:47Z</time>
      </trkpt>
      <trkpt lat="45.95386" lon="2.88802">
        <ele>706</ele>
        <time>2015-10-19T08:39:47Z</time>
      </trkpt>
      <trkpt lat="45.95372" lon="2.88802">
        <ele>705</ele>
        <time>2015-10-19T08:41:47Z</time>
      </trkpt>
      <trkpt lat="45.95349" lon="2.88798">
        <ele>704</ele>
        <time>2015-10-19T08:43:47Z</time>
      </trkpt>
      <trkpt lat="45.9533" lon="2.88795">
        <ele>703</ele>
        <time>2015-10-19T08:45:47Z</time>
      </trkpt>
      <trkpt lat="45.95312" lon="2.88786">
        <ele>702</ele>
        <time>2015-10-19T08:47:47Z</time>
      </trkpt>
      <trkpt lat="45.9528" lon="2.88756">
        <ele>703</ele>
        <time>2015-10-19T08:49:47Z</time>
      </trkpt>
      <trkpt lat="45.95275" lon="2.88736">
        <ele>704</ele>
        <time>2015-10-19T08:51:47Z</time>
      </trkpt>
      <trkpt lat="45.95275" lon="2.88687">
        <ele>706</ele>
        <time>2015-10-19T08:53:47Z</time>
      </trkpt>
      <trkpt lat="45.95271" lon="2.88649">
        <ele>707</ele>
        <time>2015-10-19T08:55:47Z</time>
      </trkpt>
      <trkpt lat="45.95265" lon="2.88592">
        <ele>708</ele>
        <time>2015-10-19T08:57:47Z</time>
      </trkpt>
      <trkpt lat="45.95273" lon="2.88571">
        <ele>709</ele>
        <time>2015-10-19T08:59:47Z</time>
      </trkpt>
      <trkpt lat="45.95282" lon="2.88546">
        <ele>711</ele>
        <time>2015-10-19T09:01:47Z</time>
      </trkpt>
      <trkpt lat="45.95294" lon="2.88521">
        <ele>713</ele>
        <time>2015-10-19T09:03:47Z</time>
      </trkpt>
      <trkpt lat="45.95303" lon="2.88515">
        <ele>713</ele>
        <time>2015-10-19T09:05:47Z</time>
      </trkpt>
      <trkpt lat="45.9531" lon="2.88505">
        <ele>714</ele>
        <time>2015-10-19T09:07:47Z</time>
      </trkpt>
      <trkpt lat="45.95317" lon="2.88477">
        <ele>715</ele>
        <time>2015-10-19T09:09:47Z</time>
      </trkpt>
      <trkpt lat="45.95332" lon="2.88409">
        <ele>718</ele>
        <time>2015-10-19T09:11:47Z</time>
      </trkpt>
      <trkpt lat="45.95342" lon="2.88358">
        <ele>721</ele>
        <time>2015-10-19T09:13:47Z</time>
      </trkpt>
      <trkpt lat="45.95346" lon="2.88299">
        <ele>725</ele>
        <time>2015-10-19T09:15:47Z</time>
      </trkpt>
      <trkpt lat="45.95345" lon="2.8824">
        <ele>730</ele>
        <time>2015-10-19T09:17:47Z</time>
      </trkpt>
      <trkpt lat="45.95337" lon="2.88192">
        <ele>735</ele>
        <time>2015-10-19T09:19:47Z</time>
      </trkpt>
      <trkpt lat="45.95338" lon="2.8813">
        <ele>740</ele>
        <time>2015-10-19T09:21:47Z</time>
      </trkpt>
      <trkpt lat="45.95335" lon="2.88101">
        <ele>742</ele>
        <time>2015-10-19T09:23:47Z</time>
      </trkpt>
      <trkpt lat="45.95333" lon="2.88075">
        <ele>744</ele>
        <time>2015-10-19T09:25:47Z</time>
      </trkpt>
      <trkpt lat="45.95333" lon="2.8803">
        <ele>746</ele>
        <time>2015-10-19T09:27:47Z</time>
      </trkpt>
      <trkpt lat="45.95327" lon="2.87998">
        <ele>748</ele>
        <time>2015-10-19T09:29:47Z</time>
      </trkpt>
      <trkpt lat="45.95314" lon="2.87975">
        <ele>750</ele>
        <time>2015-10-19T09:31:47Z</time>
      </trkpt>
      <trkpt lat="45.95306" lon="2.87951">
        <ele>752</ele>
        <time>2015-10-19T09:33:47Z</time>
      </trkpt>
      <trkpt lat="45.95272" lon="2.87863">
        <ele>755</ele>
        <time>2015-10-19T09:35:47Z</time>
      </trkpt>
      <trkpt lat="45.95262" lon="2.87835">
        <ele>756</ele>
        <time>2015-10-19T09:37:47Z</time>
      </trkpt>
      <trkpt lat="45.95231" lon="2.87768">
        <ele>758</ele>
        <time>2015-10-19T09:39:47Z</time>
      </trkpt>
      <trkpt lat="45.95171" lon="2.87722">
        <ele>759</ele>
        <time>2015-10-19T09:41:47Z</time>
      </trkpt>
      <trkpt lat="45.95144" lon="2.87701">
        <ele>757</ele>
        <time>2015-10-19T09:43:47Z</time>
      </trkpt>
      <trkpt lat="45.951" lon="2.8767">
        <ele>757</ele>
        <time>2015-10-19T09:45:47Z</time>
      </trkpt>
      <trkpt lat="45.95064" lon="2.87644">
        <ele>757</ele>
        <time>2015-10-19T09:47:47Z</time>
      </trkpt>
      <trkpt lat="45.9504" lon="2.87621">
        <ele>756</ele>
        <time>2015-10-19T09:49:47Z</time>
      </trkpt>
      <trkpt lat="45.95005" lon="2.87596">
        <ele>756</ele>
        <time>2015-10-19T09:51:47Z</time>
      </trkpt>
      <trkpt lat="45.94967" lon="2.8757">
        <ele>755</ele>
        <time>2015-10-19T09:53:47Z</time>
      </trkpt>
      <trkpt lat="45.94917" lon="2.87528">
        <ele>756</ele>
        <time>2015-10-19T09:55:47Z</time>
      </trkpt>
      <trkpt lat="45.94982" lon="2.87422">
        <ele>753</ele>
        <time>2015-10-19T09:57:47Z</time>
      </trkpt>
      <trkpt lat="45.95045" lon="2.87322">
        <ele>748</ele>
        <time>2015-10-19T09:59:47Z</time>
      </trkpt>
      <trkpt lat="45.95084" lon="2.87263">
        <ele>745</ele>
        <time>2015-10-19T10:01:47Z</time>
      </trkpt>
      <trkpt lat="45.9511" lon="2.87203">
        <ele>743</ele>
        <time>2015-10-19T10:03:47Z</time>
      </trkpt>
      <trkpt lat="45.9515" lon="2.87176">
        <ele>743</ele>
        <time>2015-10-19T10:05:47Z</time>
      </trkpt>
      <trkpt lat="45.95169" lon="2.87153">
        <ele>744</ele>
        <time>2015-10-19T10:07:47Z</time>
      </trkpt>
      <trkpt lat="45.95192" lon="2.8712">
        <ele>746</ele>
        <time>2015-10-19T10:09:47Z</time>
      </trkpt>
      <trkpt lat="45.95223" lon="2.87082">
        <ele>748</ele>
        <time>2015-10-19T10:11:47Z</time>
      </trkpt>
      <trkpt lat="45.95241" lon="2.87053">
        <ele>747</ele>
        <time>2015-10-19T10:13:47Z</time>
      </trkpt>
      <trkpt lat="45.95258" lon="2.87019">
        <ele>746</ele>
        <time>2015-10-19T10:15:47Z</time>
      </trkpt>
      <trkpt lat="45.95284" lon="2.86914">
        <ele>743</ele>
        <time>2015-10-19T10:17:47Z</time>
      </trkpt>
      <trkpt lat="45.95286" lon="2.86851">
        <ele>739</ele>
        <time>2015-10-19T10:19:47Z</time>
      </trkpt>
      <trkpt lat="45.95295" lon="2.86734">
        <ele>729</ele>
        <time>2015-10-19T10:21:47Z</time>
      </trkpt>
      <trkpt lat="45.95251" lon="2.8672">
        <ele>731</ele>
        <time>2015-10-19T10:23:47Z</time>
      </trkpt>
      <trkpt lat="45.95204" lon="2.86704">
        <ele>733</ele>
        <time>2015-10-19T10:25:47Z</time>
      </trkpt>
      <trkpt lat="45.95165" lon="2.86708">
        <ele>737</ele>
        <time>2015-10-19T10:27:47Z</time>
      </trkpt>
      <trkpt lat="45.9511" lon="2.86729">
        <ele>740</ele>
        <time>2015-10-19T10:29:47Z</time>
      </trkpt>
      <trkpt lat="45.95036" lon="2.86744">
        <ele>745</ele>
        <time>2015-10-19T10:31:47Z</time>
      </trkpt>
      <trkpt lat="45.94975" lon="2.86734">
        <ele>747</ele>
        <time>2015-10-19T10:33:47Z</time>
      </trkpt>
      <trkpt lat="45.94958" lon="2.8673">
        <ele>747</ele>
        <time>2015-10-19T10:35:47Z</time>
      </trkpt>
      <trkpt lat="45.94939" lon="2.8671">
        <ele>747</ele>
        <time>2015-10-19T10:37:47Z</time>
      </trkpt>
      <trkpt lat="45.94925" lon="2.86709">
        <ele>748</ele>
        <time>2015-10-19T10:39:47Z</time>
      </trkpt>
      <trkpt lat="45.9489" lon="2.86735">
        <ele>752</ele>
        <time>2015-10-19T10:41:47Z</time>
      </trkpt>
      <trkpt lat="45.94875" lon="2.86734">
        <ele>753</ele>
        <time>2015-10-19T10:43:47Z</time>
      </trkpt>
      <trkpt lat="45.94863" lon="2.86728">
        <ele>754</ele>
        <time>2015-10-19T10:45:47Z</time>
      </trkpt>
      <trkpt lat="45.94851" lon="2.86718">
        <ele>755</ele>
        <time>2015-10-19T10:47:47Z</time>
      </trkpt>
      <trkpt lat="45.94837" lon="2.86706">
        <ele>756</ele>
        <time>2015-10-19T10:49:47Z</time>
      </trkpt>
      <trkpt lat="45.94823" lon="2.86685">
        <ele>756</ele>
        <time>2015-10-19T10:51:47Z</time>
      </trkpt>
      <trkpt lat="45.94804" lon="2.86667">
        <ele>757</ele>
        <time>2015-10-19T10:53:47Z</time>
      </trkpt>
      <trkpt lat="45.94796" lon="2.86662">
        <ele>758</ele>
        <time>2015-10-19T10:55:47Z</time>
      </trkpt>
      <trkpt lat="45.94784" lon="2.86615">
        <ele>756</ele>
        <time>2015-10-19T10:57:47Z</time>
      </trkpt>
      <trkpt lat="45.94795" lon="2.86596">
        <ele>754</ele>
        <time>2015-10-19T10:59:47Z</time>
      </trkpt>
      <trkpt lat="45.94816" lon="2.86578">
        <ele>751</ele>
        <time>2015-10-19T11:01:47Z</time>
      </trkpt>
      <trkpt lat="45.94831" lon="2.86562">
        <ele>750</ele>
        <time>2015-10-19T11:03:47Z</time>
      </trkpt>
      <trkpt lat="45.94847" lon="2.86549">
        <ele>748</ele>
        <time>2015-10-19T11:05:47Z</time>
      </trkpt>
      <trkpt lat="45.9486" lon="2.86508">
        <ele>746</ele>
        <time>2015-10-19T11:07:47Z</time>
      </trkpt>
      <trkpt lat="45.94835" lon="2.86462">
        <ele>746</ele>
        <time>2015-10-19T11:09:47Z</time>
      </trkpt>
      <trkpt lat="45.94831" lon="2.86444">
        <ele>745</ele>
        <time>2015-10-19T11:11:47Z</time>
      </trkpt>
      <trkpt lat="45.94829" lon="2.86395">
        <ele>744</ele>
        <time>2015-10-19T11:13:47Z</time>
      </trkpt>
      <trkpt lat="45.94832" lon="2.86357">
        <ele>744</ele>
        <time>2015-10-19T11:15:47Z</time>
      </trkpt>
      <trkpt lat="45.94836" lon="2.8632">
        <ele>744</ele>
        <time>2015-10-19T11:17:47Z</time>
      </trkpt>
      <trkpt lat="45.94848" lon="2.86292">
        <ele>744</ele>
        <time>2015-10-19T11:19:47Z</time>
      </trkpt>
      <trkpt lat="45.94863" lon="2.86258">
        <ele>743</ele>
        <time>2015-10-19T11:21:47Z</time>
      </trkpt>
      <trkpt lat="45.94871" lon="2.86238">
        <ele>743</ele>
        <time>2015-10-19T11:23:47Z</time>
      </trkpt>
      <trkpt lat="45.94892" lon="2.86219">
        <ele>741</ele>
        <time>2015-10-19T11:25:47Z</time>
      </trkpt>
      <trkpt lat="45.94902" lon="2.86201">
        <ele>741</ele>
        <time>2015-10-19T11:27:47Z</time>
      </trkpt>
      <trkpt lat="45.94907" lon="2.86173">
        <ele>741</ele>
        <time>2015-10-19T11:29:47Z</time>
      </trkpt>
      <trkpt lat="45.94904" lon="2.86145">
        <ele>741</ele>
        <time>2015-10-19T11:31:47Z</time>
      </trkpt>
      <trkpt lat="45.94898" lon="2.86123">
        <ele>741</ele>
        <time>2015-10-19T11:33:47Z</time>
      </trkpt>
      <trkpt lat="45.9489" lon="2.861">
        <ele>741</ele>
        <time>2015-10-19T11:35:47Z</time>
      </trkpt>
      <trkpt lat="45.94866" lon="2.86054">
        <ele>742</ele>
        <time>2015-10-19T11:37:47Z</time>
      </trkpt>
      <trkpt lat="45.94952" lon="2.85974">
        <ele>738</ele>
        <time>2015-10-19T11:39:47Z</time>
      </trkpt>
      <trkpt lat="45.94927" lon="2.85945">
        <ele>739</ele>
        <time>2015-10-19T11:41:47Z</time>
      </trkpt>
      <trkpt lat="45.94915" lon="2.85842">
        <ele>743</ele>
        <time>2015-10-19T11:43:47Z</time>
      </trkpt>
      <trkpt lat="45.9491" lon="2.85804">
        <ele>744</ele>
        <time>2015-10-19T11:45:47Z</time>
      </trkpt>
      <trkpt lat="45.94907" lon="2.85762">
        <ele>744</ele>
        <time>2015-10-19T11:47:47Z</time>
      </trkpt>
      <trkpt lat="45.94907" lon="2.8573">
        <ele>745</ele>
        <time>2015-10-19T11:49:47Z</time>
      </trkpt>
      <trkpt lat="45.94924" lon="2.8568">
        <ele>746</ele>
        <time>2015-10-19T11:51:47Z</time>
      </trkpt>
      <trkpt lat="45.94947" lon="2.85642">
        <ele>748</ele>
        <time>2015-10-19T11:53:47Z</time>
      </trkpt>
      <trkpt lat="45.94964" lon="2.85608">
        <ele>749</ele>
        <time>2015-10-19T11:55:47Z</time>
      </trkpt>
      <trkpt lat="45.94982" lon="2.85576">
        <ele>750</ele>
        <time>2015-10-19T11:57:47Z</time>
      </trkpt>
      <trkpt lat="45.95001" lon="2.85548">
        <ele>751</ele>
        <time>2015-10-19T11:59:47Z</time>
      </trkpt>
      <trkpt lat="45.95018" lon="2.85522">
        <ele>752</ele>
        <time>2015-10-19T12:01:47Z</time>
      </trkpt>
      <trkpt lat="45.95007" lon="2.85493">
        <ele>754</ele>
        <time>2015-10-19T12:03:47Z</time>
      </trkpt>
      <trkpt lat="45.94986" lon="2.8545">
        <ele>755</ele>
        <time>2015-10-19T12:05:47Z</time>
      </trkpt>
      <trkpt lat="45.94966" lon="2.85403">
        <ele>757</ele>
        <time>2015-10-19T12:07:47Z</time>
      </trkpt>
      <trkpt lat="45.94936" lon="2.85334">
        <ele>758</ele>
        <time>2015-10-19T12:09:47Z</time>
      </trkpt>
      <trkpt lat="45.94914" lon="2.85308">
        <ele>759</ele>
        <time>2015-10-19T12:11:47Z</time>
      </trkpt>
      <trkpt lat="45.9493" lon="2.85251">
        <ele>760</ele>
        <time>2015-10-19T12:13:47Z</time>
      </trkpt>
      <trkpt lat="45.94946" lon="2.85222">
        <ele>759</ele>
        <time>2015-10-19T12:15:47Z</time>
      </trkpt>
      <trkpt lat="45.94972" lon="2.8515">
        <ele>757</ele>
        <time>2015-10-19T12:17:47Z</time>
      </trkpt>
      <trkpt lat="45.94985" lon="2.85124">
        <ele>757</ele>
        <time>2015-10-19T12:19:47Z</time>
      </trkpt>
      <trkpt lat="45.95014" lon="2.85089">
        <ele>756</ele>
        <time>2015-10-19T12:21:47Z</time>
      </trkpt>
      <trkpt lat="45.9501" lon="2.8503">
        <ele>756</ele>
        <time>2015-10-19T12:23:47Z</time>
      </trkpt>
      <trkpt lat="45.9501" lon="2.84932">
        <ele>753</ele>
        <time>2015-10-19T12:25:47Z</time>
      </trkpt>
      <trkpt lat="45.95004" lon="2.84889">
        <ele>752</ele>
        <time>2015-10-19T12:27:47Z</time>
      </trkpt>
      <trkpt lat="45.94994" lon="2.84856">
        <ele>752</ele>
        <time>2015-10-19T12:29:47Z</time>
      </trkpt>
      <trkpt lat="45.94967" lon="2.84714">
        <ele>746</ele>
        <time>2015-10-19T12:31:47Z</time>
      </trkpt>
      <trkpt lat="45.9496" lon="2.84658">
        <ele>743</ele>
        <time>2015-10-19T12:33:47Z</time>
      </trkpt>
      <trkpt lat="45.94955" lon="2.84623">
        <ele>742</ele>
        <time>2015-10-19T12:35:47Z</time>
      </trkpt>
      <trkpt lat="45.9496" lon="2.84604">
        <ele>741</ele>
        <time>2015-10-19T12:37:47Z</time>
      </trkpt>
      <trkpt lat="45.94974" lon="2.84593">
        <ele>741</ele>
        <time>2015-10-19T12:39:47Z</time>
      </trkpt>
      <trkpt lat="45.94991" lon="2.84583">
        <ele>741</ele>
        <time>2015-10-19T12:41:47Z</time>
      </trkpt>
      <trkpt lat="45.95022" lon="2.84567">
        <ele>742</ele>
        <time>2015-10-19T12:43:47Z</time>
      </trkpt>
      <trkpt lat="45.95056" lon="2.84542">
        <ele>742</ele>
        <time>2015-10-19T12:45:47Z</time>
      </trkpt>
      <trkpt lat="45.95045" lon="2.84496">
        <ele>741</ele>
        <time>2015-10-19T12:47:47Z</time>
      </trkpt>
      <trkpt lat="45.95032" lon="2.84458">
        <ele>739</ele>
        <time>2015-10-19T12:49:47Z</time>
      </trkpt>
      <trkpt lat="45.95013" lon="2.84408">
        <ele>738</ele>
        <time>2015-10-19T12:51:47Z</time>
      </trkpt>
      <trkpt lat="45.94983" lon="2.84323">
        <ele>734</ele>
        <time>2015-10-19T12:53:47Z</time>
      </trkpt>
      <trkpt lat="45.94968" lon="2.84282">
        <ele>732</ele>
        <time>2015-10-19T12:55:47Z</time>
      </trkpt>
      <trkpt lat="45.94948" lon="2.84236">
        <ele>730</ele>
        <time>2015-10-19T12:57:47Z</time>
      </trkpt>
      <trkpt lat="45.94904" lon="2.84258">
        <ele>730</ele>
        <time>2015-10-19T12:59:47Z</time>
      </trkpt>
      <trkpt lat="45.94851" lon="2.84282">
        <ele>730</ele>
        <time>2015-10-19T13:01:47Z</time>
      </trkpt>
      <trkpt lat="45.94826" lon="2.84277">
        <ele>730</ele>
        <time>2015-10-19T13:03:47Z</time>
      </trkpt>
      <trkpt lat="45.94806" lon="2.84269">
        <ele>731</ele>
        <time>2015-10-19T13:05:47Z</time>
      </trkpt>
      <trkpt lat="45.94782" lon="2.84246">
        <ele>732</ele>
        <time>2015-10-19T13:07:47Z</time>
      </trkpt>
      <trkpt lat="45.9475" lon="2.84228">
        <ele>734</ele>
        <time>2015-10-19T13:09:47Z</time>
      </trkpt>
      <trkpt lat="45.94672" lon="2.84201">
        <ele>735</ele>
        <time>2015-10-19T13:11:47Z</time>
      </trkpt>
      <trkpt lat="45.94646" lon="2.84208">
        <ele>736</ele>
        <time>2015-10-19T13:13:47Z</time>
      </trkpt>
      <trkpt lat="45.94616" lon="2.84193">
        <ele>735</ele>
        <time>2015-10-19T13:15:47Z</time>
      </trkpt>
      <trkpt lat="45.94581" lon="2.8417">
        <ele>733</ele>
        <time>2015-10-19T13:17:47Z</time>
      </trkpt>
      <trkpt lat="45.94516" lon="2.84169">
        <ele>735</ele>
        <time>2015-10-19T13:19:47Z</time>
      </trkpt>
      <trkpt lat="45.94457" lon="2.84176">
        <ele>736</ele>
        <time>2015-10-19T13:21:47Z</time>
      </trkpt>
      <trkpt lat="45.94407" lon="2.84185">
        <ele>737</ele>
        <time>2015-10-19T13:23:47Z</time>
      </trkpt>
      <trkpt lat="45.94405" lon="2.84123">
        <ele>733</ele>
        <time>2015-10-19T13:25:47Z</time>
      </trkpt>
      <trkpt lat="45.94403" lon="2.84058">
        <ele>731</ele>
        <time>2015-10-19T13:27:47Z</time>
      </trkpt>
      <trkpt lat="45.94408" lon="2.84034">
        <ele>730</ele>
        <time>2015-10-19T13:29:47Z</time>
      </trkpt>
      <trkpt lat="45.94418" lon="2.83986">
        <ele>729</ele>
        <time>2015-10-19T13:31:47Z</time>
      </trkpt>
      <trkpt lat="45.94417" lon="2.83903">
        <ele>728</ele>
        <time>2015-10-19T13:33:47Z</time>
      </trkpt>
      <trkpt lat="45.94375" lon="2.83907">
        <ele>731</ele>
        <time>2015-10-19T13:35:47Z</time>
      </trkpt>
      <trkpt lat="45.94318" lon="2.83915">
        <ele>733</ele>
        <time>2015-10-19T13:37:47Z</time>
      </trkpt>
      <trkpt lat="45.94235" lon="2.83936">
        <ele>734</ele>
        <time>2015-10-19T13:39:47Z</time>
      </trkpt>
      <trkpt lat="45.94208" lon="2.83943">
        <ele>734</ele>
        <time>2015-10-19T13:41:47Z</time>
      </trkpt>
      <trkpt lat="45.94166" lon="2.83956">
        <ele>733</ele>
        <time>2015-10-19T13:43:47Z</time>
      </trkpt>
      <trkpt lat="45.94146" lon="2.83952">
        <ele>733</ele>
        <time>2015-10-19T13:45:47Z</time>
      </trkpt>
      <trkpt lat="45.94113" lon="2.83929">
        <ele>733</ele>
        <time>2015-10-19T13:47:47Z</time>
      </trkpt>
      <trkpt lat="45.9409" lon="2.83921">
        <ele>733</ele>
        <time>2015-10-19T13:49:47Z</time>
      </trkpt>
      <trkpt lat="45.94074" lon="2.83938">
        <ele>733</ele>
        <time>2015-10-19T13:51:47Z</time>
      </trkpt>
      <trkpt lat="45.94062" lon="2.83962">
        <ele>733</ele>
        <time>2015-10-19T13:53:47Z</time>
      </trkpt>
      <trkpt lat="45.94048" lon="2.83991">
        <ele>733</ele>
        <time>2015-10-19T13:55:47Z</time>
      </trkpt>
      <trkpt lat="45.94037" lon="2.84019">
        <ele>733</ele>
        <time>2015-10-19T13:57:47Z</time>
      </trkpt>
      <trkpt lat="45.94026" lon="2.84053">
        <ele>733</ele>
        <time>2015-10-19T13:59:47Z</time>
      </trkpt>
    </trkseg>
  </trk>
</gpx>